Selz, North Dakota
Current Conditions -  °F | °C
As of 8:55 PM on Tuesday 25 Nov 2014 (Local Time) from K5H4 Reporting Station
Light Snow Light Snow  
Wind Chill: -5°   Ceiling: 1000
Heat Index: 14°   Visibility: 5mi
Dew Point: 12°   Wind: 24mph
Humidity: 93%   Direction: 50°NE
Pressure: 30.01"   Gusts: 29mph
Location:  47.7822°N, 99.8441°W
Report Text: K5H4 260255Z AUTO 05021G25KT 5SM -SN SCT006 BKN010 OVC047 M10/M11 A3001 RMK AO2 P0003
Loading
Personal Weather Stations






























Interactive Weather Map New forecast layout! Learn more

10-Day Weather Forecast

Advertisements
Track Severe Weather on mobile